Time;durP1;ratioP1;P1;durP2;ratioP2;P2;SDS_P1;SDS_P2;PMS_P1;PMS_P2;Temp;Humidity;BMP_temperature;BMP_pressure;BME280_temperature;BME280_humidity;BME280_pressure;Samples;Min_cycle;Max_cycle;Signal;HPM_P1;HPM_P2
2023/11/03 00:02:23;;;;;;;2.38;0.30;;;8.60;99.90;;;;;;4992052;28;20480;-70
2023/11/03 00:04:53;;;;;;;1.55;0.30;;;8.70;99.90;;;;;;4991383;28;20029;-71
2023/11/03 00:07:20;;;;;;;0.95;0.20;;;8.60;99.90;;;;;;4994220;28;20520;-71
2023/11/03 00:09:46;;;;;;;2.15;0.38;;;8.60;99.90;;;;;;4994113;28;20037;-71
2023/11/03 00:12:13;;;;;;;1.83;0.30;;;8.60;99.90;;;;;;4978483;28;21485;-71
2023/11/03 00:14:40;;;;;;;1.38;0.57;;;8.60;99.90;;;;;;4995070;28;20038;-71
2023/11/03 00:17:06;;;;;;;3.53;0.30;;;8.60;99.90;;;;;;4994748;28;20413;-71
2023/11/03 00:19:33;;;;;;;1.58;0.30;;;8.60;99.90;;;;;;4995739;28;20397;-71
2023/11/03 00:21:59;;;;;;;1.95;0.40;;;8.60;99.90;;;;;;4978319;28;20049;-71
2023/11/03 00:24:26;;;;;;;1.80;0.45;;;8.70;99.90;;;;;;4994786;28;20021;-71
2023/11/03 00:26:54;;;;;;;1.38;0.40;;;8.60;99.90;;;;;;4995556;28;20034;-71
2023/11/03 00:29:27;;;;;;;1.45;0.30;;;8.60;99.90;;;;;;4978159;28;20038;-71
2023/11/03 00:31:54;;;;;;;2.70;0.50;;;8.70;99.90;;;;;;4977659;28;20033;-70
2023/11/03 00:34:20;;;;;;;1.45;0.35;;;8.70;99.90;;;;;;4994749;28;20041;-71
2023/11/03 00:36:47;;;;;;;1.40;0.30;;;8.60;99.90;;;;;;4980590;28;20750;-71
2023/11/03 00:39:15;;;;;;;1.50;0.30;;;8.60;99.90;;;;;;4993664;28;20941;-72
2023/11/03 00:41:52;;;;;;;3.97;0.40;;;8.60;99.90;;;;;;5011440;28;20037;-71
2023/11/03 00:44:19;;;;;;;1.75;0.40;;;8.60;99.90;;;;;;5010147;28;20745;-71
2023/11/03 00:46:47;;;;;;;1.65;0.50;;;8.60;99.90;;;;;;4979040;28;20492;-71
2023/11/03 00:49:13;;;;;;;2.58;0.60;;;8.60;99.90;;;;;;4994046;28;20059;-71
2023/11/03 00:51:40;;;;;;;2.42;0.40;;;8.70;99.90;;;;;;4979268;28;20041;-71
2023/11/03 00:54:07;;;;;;;2.35;0.40;;;8.70;99.90;;;;;;4978664;28;20061;-71
2023/11/03 00:56:38;;;;;;;1.92;0.50;;;8.70;99.90;;;;;;4974951;28;20049;-71
2023/11/03 00:59:04;;;;;;;2.17;0.40;;;8.70;99.90;;;;;;4993239;28;20404;-72
2023/11/03 01:01:31;;;;;;;4.15;0.55;;;8.70;99.90;;;;;;4977060;28;20748;-71
2023/11/03 01:03:58;;;;;;;2.15;0.40;;;8.70;99.90;;;;;;4992336;28;20046;-71
2023/11/03 01:06:24;;;;;;;4.43;0.40;;;8.70;99.90;;;;;;4980985;28;20044;-71
2023/11/03 01:08:54;;;;;;;4.25;0.50;;;8.70;99.90;;;;;;4978367;28;20041;-72
2023/11/03 01:11:23;;;;;;;1.02;0.30;;;8.70;99.90;;;;;;4994178;28;20701;-72
2023/11/03 01:13:51;;;;;;;1.15;0.30;;;8.70;99.90;;;;;;4978473;28;20038;-71
2023/11/03 01:16:18;;;;;;;1.40;0.30;;;8.70;99.90;;;;;;4977750;28;20556;-72
2023/11/03 01:18:45;;;;;;;2.70;0.55;;;8.70;99.90;;;;;;4978163;28;20033;-71
2023/11/03 01:21:18;;;;;;;2.30;0.30;;;8.70;99.90;;;;;;4993719;28;20033;-71
2023/11/03 01:23:49;;;;;;;2.33;0.35;;;8.70;99.90;;;;;;5010482;28;20042;-72
2023/11/03 01:26:16;;;;;;;1.30;0.20;;;8.70;99.90;;;;;;4996168;28;20485;-71
2023/11/03 01:28:43;;;;;;;1.40;0.30;;;8.70;99.90;;;;;;4980181;28;20041;-72
2023/11/03 01:31:10;;;;;;;0.80;0.30;;;8.70;99.90;;;;;;4977058;28;20069;-71
2023/11/03 01:33:43;;;;;;;3.50;0.35;;;8.70;99.90;;;;;;4963178;28;20033;-71
2023/11/03 01:36:10;;;;;;;2.17;0.30;;;8.70;99.90;;;;;;4993905;28;20041;-71
2023/11/03 01:38:38;;;;;;;2.95;0.65;;;8.70;99.90;;;;;;4978000;28;20061;-72
2023/11/03 01:41:05;;;;;;;1.35;0.30;;;8.70;99.90;;;;;;4992458;28;20052;-72
2023/11/03 01:43:33;;;;;;;3.97;0.40;;;8.70;99.90;;;;;;4962832;28;20033;-72
2023/11/03 01:46:00;;;;;;;1.17;0.30;;;8.80;99.90;;;;;;4993807;28;20038;-72
2023/11/03 01:48:29;;;;;;;1.90;0.30;;;8.80;99.90;;;;;;4993586;28;20046;-71
2023/11/03 01:50:58;;;;;;;1.23;0.20;;;8.70;99.90;;;;;;4976745;28;20495;-71
2023/11/03 01:53:28;;;;;;;1.35;0.40;;;8.80;99.90;;;;;;4995359;28;20274;-71
2023/11/03 01:55:55;;;;;;;2.47;0.30;;;8.80;99.90;;;;;;4993734;28;20046;-71
2023/11/03 01:58:23;;;;;;;2.92;0.38;;;8.80;99.90;;;;;;4996507;28;20037;-70
2023/11/03 02:00:50;;;;;;;1.75;0.45;;;8.80;99.90;;;;;;4993672;28;20057;-71
2023/11/03 02:03:17;;;;;;;1.13;0.30;;;8.80;99.90;;;;;;4979159;28;20022;-72
2023/11/03 02:05:43;;;;;;;7.22;0.43;;;8.80;99.90;;;;;;4978531;28;20037;-71
2023/11/03 02:08:10;;;;;;;2.97;0.60;;;8.80;99.90;;;;;;4995423;28;20038;-72
2023/11/03 02:10:42;;;;;;;3.20;0.40;;;8.80;99.90;;;;;;4977378;28;20037;-72
2023/11/03 02:13:10;;;;;;;1.90;0.30;;;8.80;99.90;;;;;;4978128;28;20465;-72
2023/11/03 02:15:39;;;;;;;2.20;0.40;;;8.80;99.90;;;;;;4985770;28;20384;-71
2023/11/03 02:18:08;;;;;;;2.25;0.40;;;8.90;99.90;;;;;;4998951;28;20208;-72
2023/11/03 02:20:35;;;;;;;1.83;0.30;;;8.90;99.90;;;;;;5030594;28;20037;-71
2023/11/03 02:23:03;;;;;;;1.00;0.40;;;8.90;99.90;;;;;;4981921;28;20060;-72
2023/11/03 02:25:30;;;;;;;2.80;0.30;;;8.90;99.90;;;;;;4983058;28;20484;-71
2023/11/03 02:27:57;;;;;;;0.82;0.20;;;8.90;99.90;;;;;;4983747;28;20052;-71
2023/11/03 02:30:23;;;;;;;2.53;0.50;;;8.90;99.90;;;;;;5014952;28;20029;-71
2023/11/03 02:32:49;;;;;;;1.55;0.40;;;8.90;99.90;;;;;;4969021;28;20041;-71
2023/11/03 02:35:16;;;;;;;1.75;0.30;;;8.90;99.90;;;;;;4998776;28;20026;-70
2023/11/03 02:37:42;;;;;;;3.78;0.40;;;8.90;99.90;;;;;;5014801;28;20041;-72
2023/11/03 02:40:09;;;;;;;2.30;0.30;;;8.90;99.90;;;;;;4963930;28;20037;-72
2023/11/03 02:42:35;;;;;;;2.83;0.45;;;8.90;99.90;;;;;;4982607;28;20042;-71
2023/11/03 02:45:02;;;;;;;1.73;0.40;;;9.00;99.90;;;;;;4985084;28;20318;-71
2023/11/03 02:47:29;;;;;;;3.05;0.30;;;9.00;99.90;;;;;;4998090;28;20034;-72
2023/11/03 02:49:55;;;;;;;5.07;0.40;;;9.00;99.90;;;;;;4998572;28;20025;-72
2023/11/03 02:52:22;;;;;;;1.80;0.30;;;9.00;99.90;;;;;;4999751;28;20034;-72
2023/11/03 02:54:48;;;;;;;1.63;0.30;;;9.10;99.90;;;;;;4997148;28;20033;-72
2023/11/03 02:57:15;;;;;;;3.63;0.55;;;9.00;99.90;;;;;;4998886;28;20022;-71
2023/11/03 02:59:43;;;;;;;2.03;0.35;;;9.10;99.90;;;;;;4999779;28;20049;-72
2023/11/03 03:02:10;;;;;;;3.88;0.40;;;9.10;99.90;;;;;;4981677;28;20045;-72
2023/11/03 03:04:36;;;;;;;4.10;0.90;;;9.10;99.90;;;;;;5015986;28;20053;-71
2023/11/03 03:07:03;;;;;;;3.55;0.63;;;9.10;99.90;;;;;;4996869;28;20590;-72
2023/11/03 03:09:30;;;;;;;5.03;0.40;;;9.10;99.90;;;;;;4997742;28;20042;-71
2023/11/03 03:11:56;;;;;;;3.33;0.32;;;9.10;99.90;;;;;;5001324;28;20030;-71
2023/11/03 03:14:23;;;;;;;3.03;0.50;;;9.10;99.90;;;;;;4981679;28;20381;-71
2023/11/03 03:16:50;;;;;;;2.67;0.30;;;9.10;99.90;;;;;;4983284;28;20042;-72
2023/11/03 03:19:17;;;;;;;0.98;0.45;;;9.20;99.90;;;;;;4998003;28;20017;-71
2023/11/03 03:21:43;;;;;;;4.43;0.60;;;9.10;99.90;;;;;;4997947;28;20038;-71
2023/11/03 03:24:10;;;;;;;2.72;0.47;;;9.20;99.90;;;;;;5013434;28;20495;-71
2023/11/03 03:26:37;;;;;;;1.58;0.60;;;9.20;99.90;;;;;;4998006;28;20034;-71
2023/11/03 03:29:03;;;;;;;2.65;0.30;;;9.20;99.90;;;;;;4999221;28;20026;-71
2023/11/03 03:31:29;;;;;;;2.25;0.40;;;9.20;99.90;;;;;;4980698;28;20034;-71
2023/11/03 03:33:55;;;;;;;4.03;0.40;;;9.20;99.90;;;;;;5013168;28;20030;-71
2023/11/03 03:36:22;;;;;;;3.75;0.50;;;9.20;99.90;;;;;;4997458;28;20048;-71
2023/11/03 03:38:48;;;;;;;2.55;0.40;;;9.20;99.90;;;;;;4995926;28;20022;-72
2023/11/03 03:41:15;;;;;;;3.92;0.50;;;9.20;99.90;;;;;;4981322;28;20114;-71
2023/11/03 03:43:42;;;;;;;6.72;0.90;;;9.30;99.90;;;;;;4997674;28;20033;-71
2023/11/03 03:46:08;;;;;;;4.95;0.60;;;9.30;99.90;;;;;;4965046;28;20042;-72
2023/11/03 03:48:34;;;;;;;2.70;0.40;;;9.30;99.90;;;;;;4982053;28;20477;-71
2023/11/03 03:51:01;;;;;;;6.30;0.50;;;9.30;99.90;;;;;;4996972;28;20030;-71
2023/11/03 03:53:27;;;;;;;5.32;0.60;;;9.20;99.90;;;;;;4980268;28;20030;-72
2023/11/03 03:55:53;;;;;;;2.30;0.40;;;9.30;99.90;;;;;;4997253;28;20457;-71
2023/11/03 03:58:20;;;;;;;3.97;0.70;;;9.30;99.90;;;;;;4997296;28;20037;-71
2023/11/03 04:00:46;;;;;;;4.00;0.60;;;9.30;99.90;;;;;;4979906;28;20033;-72
2023/11/03 04:03:12;;;;;;;1.67;0.30;;;9.30;99.90;;;;;;4997661;28;20045;-71
2023/11/03 04:05:39;;;;;;;3.60;0.50;;;9.30;99.90;;;;;;4982931;28;20030;-71
2023/11/03 04:08:06;;;;;;;2.58;0.40;;;9.30;99.90;;;;;;4996551;28;20037;-71
2023/11/03 04:10:32;;;;;;;3.15;0.40;;;9.30;99.90;;;;;;4980017;28;20042;-72
2023/11/03 04:12:59;;;;;;;2.63;0.30;;;9.30;99.90;;;;;;4997848;28;20457;-71
2023/11/03 04:15:25;;;;;;;2.92;0.45;;;9.30;99.90;;;;;;4964771;28;20040;-72
2023/11/03 04:17:51;;;;;;;5.38;0.43;;;9.30;99.90;;;;;;4999899;28;20065;-71
2023/11/03 04:20:18;;;;;;;2.70;0.40;;;9.30;99.90;;;;;;4996247;28;22983;-72
2023/11/03 04:22:44;;;;;;;3.85;0.57;;;9.30;99.90;;;;;;4979943;28;20460;-71
2023/11/03 04:25:10;;;;;;;6.07;0.50;;;9.30;99.90;;;;;;4999219;28;20026;-72
2023/11/03 04:27:37;;;;;;;3.92;0.50;;;9.30;99.90;;;;;;4980926;28;20034;-72
2023/11/03 04:30:03;;;;;;;7.75;0.75;;;9.30;99.90;;;;;;5027835;28;20440;-72
2023/11/03 04:32:30;;;;;;;3.05;0.50;;;9.20;99.90;;;;;;4979842;28;20052;-72
2023/11/03 04:34:56;;;;;;;4.30;0.82;;;9.20;99.90;;;;;;4981835;28;20380;-72
2023/11/03 04:37:23;;;;;;;4.85;0.70;;;9.10;99.90;;;;;;4996644;28;20049;-72
2023/11/03 04:39:49;;;;;;;5.05;0.50;;;9.10;99.90;;;;;;4996748;28;20037;-72
2023/11/03 04:42:15;;;;;;;5.13;0.50;;;9.00;99.90;;;;;;4995378;28;20045;-72
2023/11/03 04:44:41;;;;;;;3.95;0.88;;;8.90;99.90;;;;;;4997551;28;20423;-72
2023/11/03 04:47:08;;;;;;;4.85;0.52;;;8.90;99.90;;;;;;4979401;28;20046;-72
2023/11/03 04:49:34;;;;;;;3.08;0.50;;;8.90;99.90;;;;;;4995304;28;20042;-71
2023/11/03 04:52:01;;;;;;;4.05;0.57;;;8.80;99.90;;;;;;4995682;28;20042;-72
2023/11/03 04:54:27;;;;;;;5.05;0.88;;;8.80;99.90;;;;;;4997294;28;20531;-72
2023/11/03 04:56:53;;;;;;;5.28;0.73;;;8.80;99.90;;;;;;4998290;28;20041;-71
2023/11/03 04:59:20;;;;;;;3.50;0.90;;;8.80;99.90;;;;;;4996378;28;20737;-71
2023/11/03 05:01:47;;;;;;;4.47;0.70;;;8.70;99.90;;;;;;4997350;28;20033;-72
2023/11/03 05:04:14;;;;;;;4.38;0.75;;;8.70;99.90;;;;;;4994911;28;20029;-72
2023/11/03 05:06:41;;;;;;;5.53;1.10;;;8.70;99.90;;;;;;4996176;28;20068;-71
2023/11/03 05:09:07;;;;;;;3.22;0.65;;;8.70;99.90;;;;;;4964854;28;20034;-72
2023/11/03 05:11:33;;;;;;;3.85;0.50;;;8.70;99.90;;;;;;4998119;28;20033;-71
2023/11/03 05:13:59;;;;;;;3.63;0.77;;;8.70;99.90;;;;;;4980157;28;20037;-71
2023/11/03 05:16:26;;;;;;;5.22;0.70;;;8.60;99.90;;;;;;4998365;28;20037;-71
2023/11/03 05:18:52;;;;;;;5.65;0.90;;;8.60;99.90;;;;;;4980251;28;20042;-71
2023/11/03 05:21:18;;;;;;;7.57;1.35;;;8.60;99.90;;;;;;4996271;28;20021;-72
2023/11/03 05:23:45;;;;;;;6.65;1.20;;;8.60;99.90;;;;;;4964629;28;20599;-71
2023/11/03 05:26:14;;;;;;;6.05;1.05;;;8.60;99.90;;;;;;4995091;28;20025;-71
2023/11/03 05:28:41;;;;;;;6.20;1.20;;;8.60;99.90;;;;;;4994720;28;20381;-72
2023/11/03 05:31:07;;;;;;;5.57;1.00;;;8.60;99.90;;;;;;4993971;28;20026;-71
2023/11/03 05:33:33;;;;;;;8.10;1.42;;;8.70;99.90;;;;;;5012377;28;20046;-70
2023/11/03 05:36:00;;;;;;;7.43;1.80;;;8.70;99.90;;;;;;4979385;28;20049;-71
2023/11/03 05:38:26;;;;;;;9.30;1.02;;;8.70;99.90;;;;;;4963866;28;20041;-71
2023/11/03 05:40:52;;;;;;;5.15;0.93;;;8.70;99.90;;;;;;4961755;28;20034;-71
2023/11/03 05:43:19;;;;;;;7.47;0.98;;;8.70;99.90;;;;;;4981090;28;20034;-71
2023/11/03 05:45:45;;;;;;;4.28;0.73;;;8.70;99.90;;;;;;4996787;28;20349;-71
2023/11/03 05:48:11;;;;;;;4.57;0.70;;;8.70;99.90;;;;;;4997598;28;20030;-71
2023/11/03 05:50:38;;;;;;;4.40;0.68;;;8.70;99.90;;;;;;5001755;28;20040;-71
2023/11/03 05:53:04;;;;;;;4.63;0.80;;;8.70;99.90;;;;;;5002201;28;20034;-71
2023/11/03 05:55:31;;;;;;;8.38;1.02;;;8.70;99.90;;;;;;4987228;28;20018;-71
2023/11/03 05:57:57;;;;;;;7.25;0.98;;;8.70;99.90;;;;;;4985198;28;20048;-71
2023/11/03 06:00:27;;;;;;;7.45;0.95;;;8.70;99.90;;;;;;5002016;28;20049;-71
2023/11/03 06:02:55;;;;;;;6.90;1.02;;;8.70;99.90;;;;;;5001247;28;20473;-71
2023/11/03 06:05:21;;;;;;;5.25;1.20;;;8.80;99.90;;;;;;5000645;28;20030;-71
2023/11/03 06:07:48;;;;;;;9.82;1.33;;;8.80;99.90;;;;;;4988695;28;20041;-72
2023/11/03 06:10:14;;;;;;;12.85;2.33;;;8.80;99.90;;;;;;4983416;28;20483;-71
2023/11/03 06:12:41;;;;;;;5.13;0.90;;;8.80;99.90;;;;;;4984941;28;20044;-71
2023/11/03 06:15:07;;;;;;;7.95;2.03;;;8.80;99.90;;;;;;5004284;28;20461;-70
2023/11/03 06:17:34;;;;;;;10.38;1.20;;;8.80;99.90;;;;;;4968650;28;20369;-72
2023/11/03 06:20:00;;;;;;;8.40;1.05;;;8.90;99.90;;;;;;5001365;28;20031;-71
2023/11/03 06:22:26;;;;;;;6.97;0.88;;;8.90;99.90;;;;;;4984667;28;20030;-71
2023/11/03 06:24:53;;;;;;;7.53;1.35;;;8.90;99.90;;;;;;4984343;28;20042;-71
2023/11/03 06:27:19;;;;;;;6.95;1.10;;;8.90;99.90;;;;;;5001440;28;20033;-71
2023/11/03 06:29:45;;;;;;;6.25;1.08;;;8.90;99.90;;;;;;5015033;28;20030;-72
2023/11/03 06:32:12;;;;;;;6.50;1.45;;;8.90;99.90;;;;;;4968590;28;20389;-71
2023/11/03 06:34:39;;;;;;;5.60;1.00;;;8.90;99.90;;;;;;5002217;28;20141;-71
2023/11/03 06:37:05;;;;;;;7.05;1.17;;;8.90;99.90;;;;;;4968333;28;20033;-71
2023/11/03 06:39:32;;;;;;;5.18;0.90;;;8.90;99.90;;;;;;5001932;28;20478;-71
2023/11/03 06:41:58;;;;;;;8.77;1.60;;;9.00;99.90;;;;;;4985375;28;20037;-71
2023/11/03 06:44:24;;;;;;;7.40;1.02;;;9.00;99.90;;;;;;5001223;28;20037;-71
2023/11/03 06:46:51;;;;;;;13.57;1.38;;;9.00;99.90;;;;;;4986851;28;20038;-71
2023/11/03 06:49:17;;;;;;;7.78;1.17;;;9.00;99.90;;;;;;5002699;28;20401;-71
2023/11/03 06:51:44;;;;;;;6.38;0.98;;;9.00;99.90;;;;;;5002498;28;20037;-72
2023/11/03 06:54:10;;;;;;;6.68;0.70;;;9.00;99.90;;;;;;4982824;28;20046;-71
2023/11/03 06:56:36;;;;;;;6.75;0.93;;;9.00;99.90;;;;;;4982922;28;20045;-71
2023/11/03 06:59:03;;;;;;;6.57;0.80;;;9.00;99.90;;;;;;4998574;28;21606;-71
2023/11/03 07:01:31;;;;;;;5.45;0.80;;;9.00;99.90;;;;;;4997310;28;20037;-71
2023/11/03 07:03:58;;;;;;;4.70;0.73;;;9.00;99.90;;;;;;5011748;28;20037;-70
2023/11/03 07:06:25;;;;;;;8.63;1.52;;;9.00;99.90;;;;;;4981642;28;20607;-71
2023/11/03 07:08:51;;;;;;;7.13;1.15;;;9.00;99.90;;;;;;4980878;28;20444;-71
2023/11/03 07:11:19;;;;;;;7.70;1.38;;;9.00;99.90;;;;;;4963611;28;20033;-71
2023/11/03 07:13:45;;;;;;;8.45;1.10;;;9.00;99.90;;;;;;4979407;28;20038;-71
2023/11/03 07:16:13;;;;;;;8.80;0.90;;;9.10;99.90;;;;;;4998234;28;20029;-71
2023/11/03 07:18:41;;;;;;;6.78;1.13;;;9.10;99.90;;;;;;4997958;28;20042;-71
2023/11/03 07:21:12;;;;;;;10.50;0.98;;;9.10;99.90;;;;;;4978625;28;20034;-71
2023/11/03 07:23:40;;;;;;;10.25;1.40;;;9.10;99.90;;;;;;4993778;28;20053;-71
2023/11/03 07:26:06;;;;;;;8.48;1.02;;;9.10;99.90;;;;;;4966498;28;20037;-71
2023/11/03 07:28:32;;;;;;;7.18;0.85;;;9.10;99.90;;;;;;4996411;28;20485;-72
2023/11/03 07:30:59;;;;;;;6.07;0.93;;;9.10;99.90;;;;;;4979958;28;20049;-71
2023/11/03 07:33:26;;;;;;;9.20;1.70;;;9.10;99.90;;;;;;4997675;28;20400;-72
2023/11/03 07:35:52;;;;;;;7.15;1.00;;;9.10;99.90;;;;;;4996359;28;20029;-71
2023/11/03 07:38:19;;;;;;;4.88;0.70;;;9.10;99.90;;;;;;4997064;28;20026;-72
2023/11/03 07:40:45;;;;;;;6.80;1.10;;;9.10;99.90;;;;;;4995346;28;20041;-71
2023/11/03 07:43:11;;;;;;;5.03;0.75;;;9.10;99.90;;;;;;4998343;28;20046;-72
2023/11/03 07:45:38;;;;;;;4.53;0.80;;;9.10;99.90;;;;;;4998161;28;20621;-71
2023/11/03 07:48:05;;;;;;;8.23;1.15;;;9.20;99.90;;;;;;4979687;28;20046;-72
2023/11/03 07:50:32;;;;;;;6.25;1.13;;;9.20;99.90;;;;;;4996583;28;20567;-71
2023/11/03 07:52:58;;;;;;;9.60;1.67;;;9.20;99.90;;;;;;4996915;28;20038;-71
2023/11/03 07:55:25;;;;;;;7.22;0.85;;;9.20;99.90;;;;;;4997842;28;20044;-72
2023/11/03 07:57:51;;;;;;;8.45;1.10;;;9.20;99.90;;;;;;4996528;28;20041;-71
2023/11/03 08:00:18;;;;;;;10.40;1.63;;;9.20;99.90;;;;;;4996767;28;20606;-71
2023/11/03 08:02:44;;;;;;;6.07;0.70;;;9.30;99.90;;;;;;5028488;28;20049;-71
2023/11/03 08:05:10;;;;;;;4.68;0.63;;;9.20;99.90;;;;;;4995710;28;20045;-71
2023/11/03 08:07:37;;;;;;;8.70;1.15;;;9.30;99.90;;;;;;4979812;28;20041;-75
2023/11/03 08:10:04;;;;;;;7.50;1.10;;;9.30;99.90;;;;;;4997480;28;20041;-74
2023/11/03 08:12:33;;;;;;;12.13;1.83;;;9.30;99.90;;;;;;4996551;28;20041;-73
2023/11/03 08:15:01;;;;;;;11.48;1.40;;;9.40;99.90;;;;;;4996292;28;20038;-73
2023/11/03 08:17:28;;;;;;;8.73;1.10;;;9.40;99.90;;;;;;4995485;28;20042;-74
2023/11/03 08:19:55;;;;;;;6.30;0.80;;;9.50;99.90;;;;;;4979374;28;20034;-74
2023/11/03 08:22:21;;;;;;;10.25;1.15;;;9.60;99.90;;;;;;4996821;28;20038;-74
2023/11/03 08:24:49;;;;;;;10.57;1.13;;;9.70;99.90;;;;;;4984436;28;20037;-73
2023/11/03 08:27:15;;;;;;;9.50;1.00;;;9.70;99.90;;;;;;4980640;28;20034;-74
2023/11/03 08:29:41;;;;;;;10.95;1.08;;;9.80;99.90;;;;;;4978495;28;20041;-74
2023/11/03 08:32:10;;;;;;;7.72;0.68;;;9.80;99.90;;;;;;4996435;28;20030;-74
2023/11/03 08:34:37;;;;;;;14.18;2.28;;;9.90;99.90;;;;;;4998397;28;20037;-75
2023/11/03 08:37:04;;;;;;;10.23;1.55;;;9.90;99.90;;;;;;4994435;28;20030;-74
2023/11/03 08:39:31;;;;;;;10.45;1.00;;;10.00;99.90;;;;;;4995053;28;20503;-73
2023/11/03 08:42:02;;;;;;;8.10;1.10;;;10.10;99.90;;;;;;4995328;28;20056;-75
2023/11/03 08:44:31;;;;;;;10.20;1.00;;;10.30;99.90;;;;;;4995276;28;20073;-75
2023/11/03 08:46:57;;;;;;;11.50;1.15;;;10.40;99.90;;;;;;4982155;28;20033;-72
2023/11/03 08:49:24;;;;;;;8.50;0.98;;;10.50;99.90;;;;;;4996796;28;20024;-75
2023/11/03 08:51:52;;;;;;;9.98;2.33;;;10.70;99.90;;;;;;4995743;28;20105;-75
2023/11/03 08:54:18;;;;;;;8.55;1.67;;;10.80;99.90;;;;;;4977970;28;20053;-75
2023/11/03 08:56:45;;;;;;;9.38;1.83;;;11.00;99.90;;;;;;4995297;28;20034;-75
2023/11/03 08:59:12;;;;;;;4.93;0.90;;;11.10;99.90;;;;;;4995022;28;20049;-74
2023/11/03 09:01:41;;;;;;;7.72;1.10;;;11.20;99.90;;;;;;4994003;28;20041;-75
2023/11/03 09:04:07;;;;;;;9.82;1.13;;;11.30;99.90;;;;;;4977964;28;20057;-75
2023/11/03 09:06:34;;;;;;;11.13;2.35;;;11.40;99.90;;;;;;4977500;28;20029;-76
2023/11/03 09:09:00;;;;;;;7.40;1.23;;;11.40;99.90;;;;;;4981113;28;20026;-74
2023/11/03 09:11:26;;;;;;;11.60;1.88;;;11.50;99.90;;;;;;4964845;28;20030;-75
2023/11/03 09:13:53;;;;;;;9.73;1.00;;;11.50;99.90;;;;;;4994056;28;20400;-75
2023/11/03 09:16:21;;;;;;;9.52;1.15;;;11.60;99.90;;;;;;4979413;28;20384;-82
2023/11/03 09:18:50;;;;;;;14.15;0.93;;;11.60;99.90;;;;;;4999317;28;20136;-82
2023/11/03 09:21:17;;;;;;;7.53;0.90;;;11.60;99.90;;;;;;4998744;28;20025;-80
2023/11/03 09:23:43;;;;;;;8.82;1.23;;;11.70;99.90;;;;;;4961354;28;20033;-74
2023/11/03 09:26:09;;;;;;;9.27;2.05;;;11.80;99.90;;;;;;4995462;28;20040;-75
2023/11/03 09:28:38;;;;;;;8.00;1.77;;;11.80;99.90;;;;;;4997163;28;20030;-74
2023/11/03 09:31:05;;;;;;;12.10;1.27;;;11.80;99.90;;;;;;4993170;28;20038;-74
2023/11/03 09:33:31;;;;;;;9.77;1.42;;;11.80;99.90;;;;;;4977312;28;20033;-75
2023/11/03 09:35:58;;;;;;;7.72;1.58;;;11.80;99.90;;;;;;4989539;28;20814;-74
2023/11/03 09:38:24;;;;;;;13.77;2.03;;;11.90;99.90;;;;;;4961858;28;20034;-75
2023/11/03 09:40:51;;;;;;;8.25;1.30;;;11.90;99.90;;;;;;4977610;28;20041;-74
2023/11/03 09:43:18;;;;;;;10.93;1.30;;;11.90;99.90;;;;;;4977798;28;20021;-75
2023/11/03 09:45:46;;;;;;;9.32;1.20;;;11.90;99.90;;;;;;4979214;28;20046;-74
2023/11/03 09:48:13;;;;;;;8.00;1.10;;;12.00;99.90;;;;;;4963205;28;20052;-74
2023/11/03 09:50:39;;;;;;;11.13;1.25;;;12.00;99.90;;;;;;4979159;28;20029;-75
2023/11/03 09:53:11;;;;;;;9.77;1.50;;;12.00;99.90;;;;;;4994715;28;20045;-76
2023/11/03 09:55:38;;;;;;;10.45;1.67;;;11.90;99.90;;;;;;5010909;28;20515;-75
2023/11/03 09:58:06;;;;;;;12.43;1.20;;;11.90;99.90;;;;;;4965105;28;20040;-75
2023/11/03 10:00:32;;;;;;;8.38;1.77;;;11.80;99.90;;;;;;4995872;28;20042;-75
2023/11/03 10:02:59;;;;;;;14.38;1.85;;;11.70;99.90;;;;;;4996347;28;20045;-75
2023/11/03 10:05:27;;;;;;;8.82;1.33;;;11.70;99.90;;;;;;4994349;28;20497;-75
2023/11/03 10:08:01;;;;;;;12.13;0.90;;;11.70;99.90;;;;;;4994478;28;20392;-74
2023/11/03 10:10:35;;;;;;;7.97;1.10;;;11.70;99.90;;;;;;4994587;28;20389;-73
2023/11/03 10:13:05;;;;;;;11.40;1.55;;;11.70;99.90;;;;;;4978311;28;20064;-74
2023/11/03 10:15:32;;;;;;;8.38;1.33;;;11.70;99.90;;;;;;4975944;28;20041;-75
2023/11/03 10:17:58;;;;;;;5.65;1.05;;;11.70;99.90;;;;;;4994360;28;20473;-75
2023/11/03 10:20:25;;;;;;;7.03;1.02;;;11.70;99.90;;;;;;4995497;28;20170;-75
2023/11/03 10:22:51;;;;;;;6.15;0.95;;;11.80;99.90;;;;;;4994074;28;20041;-75
2023/11/03 10:25:18;;;;;;;8.02;1.27;;;11.80;99.90;;;;;;4983210;28;20583;-75
2023/11/03 10:27:48;;;;;;;9.18;0.95;;;11.90;99.90;;;;;;4978630;28;20499;-74
2023/11/03 10:30:18;;;;;;;7.82;1.15;;;11.90;99.90;;;;;;4994937;28;20041;-74
2023/11/03 10:32:44;;;;;;;8.55;1.10;;;12.20;99.90;;;;;;4996575;28;20026;-74
2023/11/03 10:35:12;;;;;;;5.60;1.15;;;12.60;99.90;;;;;;4997535;28;20037;-75
2023/11/03 10:37:40;;;;;;;6.53;0.88;;;12.80;99.90;;;;;;4999675;28;20658;-75
2023/11/03 10:40:14;;;;;;;7.97;1.02;;;13.00;99.90;;;;;;4979491;28;20038;-75
2023/11/03 10:42:48;;;;;;;8.65;1.25;;;13.10;99.90;;;;;;4980979;28;20041;-74
2023/11/03 10:45:20;;;;;;;7.50;0.90;;;13.10;99.90;;;;;;4997930;28;20030;-75
2023/11/03 10:48:05;;;;;;;6.93;1.63;;;13.00;99.90;;;;;;5020377;28;20034;-75
2023/11/03 10:50:35;;;;;;;7.75;1.25;;;12.80;99.90;;;;;;4996300;28;20038;-75
2023/11/03 10:53:29;;;;;;;8.23;1.30;;;12.70;99.90;;;;;;4996079;28;20025;-74
2023/11/03 10:56:05;;;;;;;9.80;1.08;;;12.50;99.90;;;;;;4981858;28;20046;-74
2023/11/03 10:58:32;;;;;;;5.60;0.80;;;12.40;99.90;;;;;;5013383;28;20046;-75
2023/11/03 11:01:08;;;;;;;5.43;0.80;;;12.30;99.90;;;;;;5012643;28;20045;-74
2023/11/03 11:03:50;;;;;;;8.88;1.67;;;12.30;99.90;;;;;;5014120;28;20049;-75
2023/11/03 11:06:31;;;;;;;10.45;0.93;;;12.20;99.90;;;;;;4999271;28;20536;-75
2023/11/03 11:09:06;;;;;;;7.38;0.90;;;12.20;99.90;;;;;;4993067;28;20041;-75
2023/11/03 11:11:33;;;;;;;10.15;1.33;;;12.10;99.90;;;;;;4981279;28;20046;-75
2023/11/03 11:14:22;;;;;;;10.50;1.42;;;12.10;99.90;;;;;;4997871;28;20034;-75
2023/11/03 11:16:56;;;;;;;5.90;1.00;;;12.10;99.90;;;;;;4998034;28;20513;-76
2023/11/03 11:19:45;;;;;;;5.95;1.02;;;12.10;99.90;;;;;;4997645;28;23020;-75
2023/11/03 11:22:18;;;;;;;7.27;1.37;;;12.10;99.90;;;;;;4997774;28;20021;-75
2023/11/03 11:24:45;;;;;;;9.57;1.67;;;12.20;99.90;;;;;;4997579;28;20386;-75
2023/11/03 11:27:17;;;;;;;10.70;1.88;;;12.30;99.90;;;;;;4998585;28;20404;-75
2023/11/03 11:29:45;;;;;;;6.53;1.17;;;12.30;99.90;;;;;;4998582;28;20030;-76
2023/11/03 11:32:12;;;;;;;10.30;1.63;;;12.30;99.90;;;;;;4998157;28;20030;-76
2023/11/03 11:34:41;;;;;;;8.57;1.52;;;12.30;99.90;;;;;;4980730;28;20060;-76
2023/11/03 11:37:27;;;;;;;8.52;1.10;;;12.30;99.90;;;;;;5020137;28;20282;-75
2023/11/03 11:39:59;;;;;;;11.10;1.15;;;12.30;99.90;;;;;;4998010;28;20037;-74
2023/11/03 11:42:30;;;;;;;9.80;0.98;;;12.30;99.90;;;;;;4997210;28;20045;-76
2023/11/03 11:44:59;;;;;;;;;;;12.40;99.90;;;;;;4997385;28;20507;-76
2023/11/03 11:47:29;;;;;;;10.38;1.45;;;12.40;99.90;;;;;;4997570;28;19913;-77
2023/11/03 11:49:56;;;;;;;10.32;0.98;;;12.50;99.90;;;;;;4984681;28;20041;-76
2023/11/03 11:52:25;;;;;;;5.90;0.80;;;12.50;99.90;;;;;;4981824;28;20048;-75
2023/11/03 11:54:57;;;;;;;8.32;1.30;;;12.50;99.90;;;;;;4998557;28;20646;-76
2023/11/03 11:57:26;;;;;;;11.10;1.20;;;12.60;99.90;;;;;;5013803;28;20069;-76
2023/11/03 11:59:56;;;;;;;9.00;1.13;;;12.70;99.90;;;;;;4996732;28;20045;-75
2023/11/03 12:02:25;;;;;;;7.80;0.93;;;12.80;99.90;;;;;;4996998;28;20033;-76
2023/11/03 12:04:55;;;;;;;12.40;1.45;;;12.80;99.90;;;;;;4982806;28;20050;-74
2023/11/03 12:07:22;;;;;;;7.43;0.88;;;12.70;99.90;;;;;;5012209;28;20041;-75
2023/11/03 12:09:51;;;;;;;6.45;1.08;;;12.70;99.90;;;;;;4996811;28;20046;-74
2023/11/03 12:12:18;;;;;;;8.88;1.38;;;12.80;99.90;;;;;;4982694;28;20037;-74
2023/11/03 12:14:45;;;;;;;8.55;1.25;;;12.80;99.90;;;;;;4980752;28;20040;-74
2023/11/03 12:17:15;;;;;;;5.47;1.05;;;12.90;99.90;;;;;;4981425;28;20046;-75
2023/11/03 12:19:49;;;;;;;5.97;1.00;;;13.00;99.90;;;;;;5013253;28;20030;-76
2023/11/03 12:22:26;;;;;;;7.05;0.80;;;13.10;99.90;;;;;;4979744;28;20029;-75
2023/11/03 12:24:54;;;;;;;7.70;0.90;;;13.20;99.90;;;;;;4965011;28;20064;-75
2023/11/03 12:27:24;;;;;;;31.40;2.85;;;13.10;99.90;;;;;;4993270;28;20681;-75
2023/11/03 12:30:00;;;;;;;9.93;1.02;;;13.10;99.90;;;;;;4967538;28;20033;-74
2023/11/03 12:32:32;;;;;;;12.27;1.50;;;13.20;99.90;;;;;;4997286;28;20385;-75
2023/11/03 12:34:59;;;;;;;8.60;1.30;;;13.20;99.90;;;;;;4979305;28;20034;-75
2023/11/03 12:37:28;;;;;;;7.30;1.10;;;13.30;99.90;;;;;;4965074;28;20041;-78
2023/11/03 12:39:57;;;;;;;10.02;0.80;;;13.30;99.90;;;;;;4979845;28;20033;-77
2023/11/03 12:42:26;;;;;;;7.32;0.77;;;13.30;99.90;;;;;;4997291;28;20041;-78
2023/11/03 12:44:56;;;;;;;39.03;3.40;;;13.30;99.90;;;;;;4979855;28;20274;-77
2023/11/03 12:47:44;;;;;;;31.70;2.53;;;13.30;99.90;;;;;;4995996;28;20037;-75
2023/11/03 12:50:21;;;;;;;11.82;1.52;;;13.40;99.90;;;;;;5010207;28;20524;-74
2023/11/03 12:52:55;;;;;;;11.00;1.40;;;13.40;99.90;;;;;;5024539;28;20041;-76
2023/11/03 12:55:26;;;;;;;8.30;1.15;;;13.40;99.90;;;;;;4979884;28;20056;-77
2023/11/03 12:57:53;;;;;;;10.85;1.15;;;13.30;99.90;;;;;;4977625;28;20042;-75